ダーウィン の空港の天気 - METARとTAF

ダーウィン国際空港 ( YPDN / DRW ) - オーストラリア ノーザンテリトリーダーウィン
飛行場実況気象(Metar)
観測時間09/25 10:00 ACST (09/25 00:30 UTC)
風向・風速東 5m/s
視程10km以上
天気現象
少しの雲 雲底高度 1100m
全天の8割程度の雲 雲底高度 10970m
気温30℃
湿度55%
気圧1013hPa
METARYPDN 250030Z 08009KT 9999 FEW036 BKN360 30/20 Q1013
過去の天気等 Google飛行場航空写真 Wunderground天気予報

過去48時間のMETAR

飛行場予報(TAF)
発表時間: 9/25 08:31 ACST (9/24 23:01 UTC)
予報対象時間: 25日9時 ACST ~ 26日15時 ACST
風向・風速東南東 4m/s
視程10km以上
全天の4割程度の雲 雲底高度 910m
25日12時 ACST から
風向・風速北 6m/s
視程10km以上
少しの雲 雲底高度 1220m
25日16時 ACST から
風向・風速北北西 4m/s
視程10km以上
少しの雲 雲底高度 1220m
26日3時 ACST から
風向・風速東北東 3m/s
視程10km以上
全天の4割程度の雲 雲底高度 610m
26日8時 ACST から
風向・風速東 4m/s
視程10km以上
少しの雲 雲底高度 910m
26日13時 ACST から
風向・風速北北西 5m/s
視程10km以上
なし
TAF YPDN 242301Z 2500/2606 11008KT 9999 SCT030
FM250300 01012KT 9999 FEW040
FM250700 33008KT 9999 FEW040
FM251800 07005KT 9999 SCT020
FM252300 08008KT 9999 FEW030
FM260400 34010KT CAVOK INTER 2517/2521 5000 SHRA BKN010